Time;durP1;ratioP1;P1;durP2;ratioP2;P2;SDS_P1;SDS_P2;PMS_P1;PMS_P2;Temp;Humidity;BMP_temperature;BMP_pressure;BME280_temperature;BME280_humidity;BME280_pressure;Samples;Min_cycle;Max_cycle;Signal;HPM_P1;HPM_P2
2023/09/20 00:01:26;;;;;;;;;1.00;1.00;;;;;20.37;64.63;100761.03;5094285;27;45555;-69
2023/09/20 00:03:55;;;;;;;;;3.00;1.00;;;;;20.31;64.92;100751.53;5079064;27;45521;-71
2023/09/20 00:06:21;;;;;;;;;1.33;1.00;;;;;20.24;64.74;100739.38;5080611;27;45466;-70
2023/09/20 00:09:04;;;;;;;;;1.00;1.00;;;;;20.23;65.46;100739.44;5078894;27;45809;-67
2023/09/20 00:11:29;;;;;;;;;1.33;1.33;;;;;20.11;65.27;100722.16;5098964;27;45487;-68
2023/09/20 00:13:58;;;;;;;;;1.67;0.67;;;;;20.12;65.26;100730.06;5077201;27;45488;-66
2023/09/20 00:16:24;;;;;;;;;1.00;1.00;;;;;20.29;65.19;100756.03;5092076;27;46514;-66
2023/09/20 00:18:50;;;;;;;;;3.00;1.00;;;;;20.18;65.69;100742.25;5098101;27;45438;-68
2023/09/20 00:21:15;;;;;;;;;1.00;1.00;;;;;20.18;65.88;100746.72;5080615;27;45878;-66
2023/09/20 00:23:42;;;;;;;;;1.00;1.00;;;;;20.03;65.70;100721.59;5098551;27;45470;-66
2023/09/20 00:26:08;;;;;;;;;1.00;1.00;;;;;20.17;66.31;100743.19;5097966;27;45881;-66
2023/09/20 00:28:35;;;;;;;;;1.00;1.00;;;;;20.05;66.49;100731.22;5098234;27;45550;-67
2023/09/20 00:31:25;;;;;;;;;1.33;1.33;;;;;20.15;66.49;100742.38;5096970;27;45393;-71
2023/09/20 00:33:54;;;;;;;;;1.00;1.00;;;;;20.13;66.78;100734.47;5094901;27;45333;-67
2023/09/20 00:36:20;;;;;;;;;2.00;0.67;;;;;20.04;66.95;100724.16;5081194;27;46618;-66
2023/09/20 00:38:47;;;;;;;;;2.67;1.00;;;;;20.05;67.11;100720.59;5097318;27;45363;-66
2023/09/20 00:41:13;;;;;;;;;3.00;2.00;;;;;20.16;67.05;100733.47;5080105;27;45488;-65
2023/09/20 00:43:39;;;;;;;;;1.33;1.33;;;;;19.94;67.62;100705.97;5098085;27;45313;-67
2023/09/20 00:46:04;;;;;;;;;1.67;1.33;;;;;20.05;67.37;100715.28;5097143;27;45905;-66
2023/09/20 00:48:31;;;;;;;;;4.67;1.33;;;;;20.16;66.65;100721.97;5098029;27;45549;-65
2023/09/20 00:50:57;;;;;;;;;2.33;2.00;;;;;20.13;67.45;100725.63;5097106;27;45456;-66
2023/09/20 00:53:23;;;;;;;;;1.00;1.00;;;;;20.15;66.99;100721.13;5097713;27;45487;-67
2023/09/20 00:55:50;;;;;;;;;2.00;1.00;;;;;20.13;67.12;100721.16;5095976;27;46179;-67
2023/09/20 00:58:17;;;;;;;;;2.00;1.33;;;;;20.22;67.42;100727.94;5097371;27;45440;-67
2023/09/20 01:00:50;;;;;;;;;2.33;2.00;;;;;20.13;67.17;100710.53;5097298;27;45611;-66
2023/09/20 01:03:18;;;;;;;;;3.67;0.67;;;;;20.27;66.72;100728.63;5074366;27;45622;-67
2023/09/20 01:05:47;;;;;;;;;2.00;1.00;;;;;20.19;66.75;100701.44;5086120;27;45528;-66
2023/09/20 01:08:17;;;;;;;;;2.00;1.00;;;;;20.22;67.51;100716.44;5096495;27;45408;-67
2023/09/20 01:10:52;;;;;;;;;1.00;1.00;;;;;20.23;67.30;100718.16;5098889;27;45345;-66
2023/09/20 01:13:22;;;;;;;;;1.33;0.33;;;;;20.07;67.28;100689.50;5075624;28;45337;-67
2023/09/20 01:15:48;;;;;;;;;3.00;3.00;;;;;20.12;67.65;100711.47;5088120;27;45376;-67
2023/09/20 01:18:13;;;;;;;;;3.00;1.33;;;;;19.97;67.74;100705.84;5097791;27;45507;-67
2023/09/20 01:20:39;;;;;;;;;2.00;1.00;;;;;19.83;68.11;100693.94;5093815;27;45456;-67
2023/09/20 01:23:05;;;;;;;;;1.00;1.00;;;;;19.91;67.93;100707.81;5093029;27;45943;-67
2023/09/20 01:25:38;;;;;;;;;2.67;1.00;;;;;19.80;68.05;100699.38;5097040;27;45499;-66
2023/09/20 01:28:07;;;;;;;;;2.00;1.00;;;;;19.82;68.61;100713.47;5097470;27;45488;-65
2023/09/20 01:30:36;;;;;;;;;1.00;1.00;;;;;19.75;67.97;100719.94;5097038;27;45487;-67
2023/09/20 01:33:05;;;;;;;;;1.00;1.00;;;;;19.72;68.30;100712.06;5096995;27;45469;-66
2023/09/20 01:35:31;;;;;;;;;3.00;2.00;;;;;19.69;68.66;100718.38;5096954;27;46554;-66
2023/09/20 01:37:58;;;;;;;;;2.00;1.00;;;;;19.61;68.77;100709.75;5096810;27;45385;-67
2023/09/20 01:40:26;;;;;;;;;1.00;0.67;;;;;19.64;68.72;100712.31;5082729;27;45479;-66
2023/09/20 01:42:52;;;;;;;;;1.00;1.00;;;;;19.54;68.99;100704.72;5096916;27;45489;-65
2023/09/20 01:45:20;;;;;;;;;1.00;1.00;;;;;19.58;69.39;100704.56;5097650;27;46612;-67
2023/09/20 01:47:49;;;;;;;;;2.00;1.67;;;;;19.48;69.62;100703.13;5062103;27;45420;-66
2023/09/20 01:50:25;;;;;;;;;1.00;1.00;;;;;19.48;70.08;100709.34;5093589;27;45368;-67
2023/09/20 01:52:58;;;;;;;;;1.00;1.00;;;;;19.36;70.30;100693.84;5097210;27;45494;-66
2023/09/20 01:55:25;;;;;;;;;1.00;1.00;;;;;19.37;70.31;100697.38;5096812;27;45421;-67
2023/09/20 01:57:54;;;;;;;;;0.00;0.00;;;;;19.37;70.61;100703.53;5098233;27;45511;-66
2023/09/20 02:00:36;;;;;;;;;0.67;0.67;;;;;19.34;70.78;100705.41;5097183;27;45556;-67
2023/09/20 02:03:19;;;;;;;;;1.00;1.00;;;;;19.24;70.87;100692.47;5096806;27;45497;-66
2023/09/20 02:05:51;;;;;;;;;1.00;1.00;;;;;19.08;71.23;100672.69;5087170;27;46247;-68
2023/09/20 02:08:18;;;;;;;;;1.00;1.00;;;;;19.10;71.21;100675.28;5074789;27;45442;-66
2023/09/20 02:10:45;;;;;;;;;2.00;1.33;;;;;19.09;71.14;100674.41;5075843;27;45469;-66
2023/09/20 02:13:11;;;;;;;;;0.00;0.00;;;;;19.21;71.92;100689.06;5096691;27;45478;-66
2023/09/20 02:15:41;;;;;;;;;1.00;1.00;;;;;19.13;71.69;100675.19;5091674;27;45350;-66
2023/09/20 02:18:08;;;;;;;;;0.33;0.33;;;;;19.14;71.85;100691.03;5096578;27;45357;-67
2023/09/20 02:20:36;;;;;;;;;1.67;1.00;;;;;19.10;72.39;100689.44;5075290;27;45376;-66
2023/09/20 02:23:03;;;;;;;;;1.00;1.00;;;;;19.05;72.24;100673.66;5086473;27;45487;-66
2023/09/20 02:25:29;;;;;;;;;0.67;0.00;;;;;19.02;72.16;100659.63;5095965;27;46226;-67
2023/09/20 02:27:57;;;;;;;;;1.00;1.00;;;;;18.96;72.69;100666.00;5095780;27;45461;-67
2023/09/20 02:30:28;;;;;;;;;1.33;1.00;;;;;18.98;72.55;100666.84;5096288;27;45498;-65
2023/09/20 02:32:57;;;;;;;;;1.00;1.00;;;;;18.93;72.62;100658.13;5096342;27;45759;-66
2023/09/20 02:35:24;;;;;;;;;1.00;0.00;;;;;19.03;72.60;100675.50;5095962;27;46238;-67
2023/09/20 02:37:51;;;;;;;;;1.67;1.67;;;;;18.96;72.87;100646.53;5081579;27;45468;-67
2023/09/20 02:40:23;;;;;;;;;2.00;1.33;;;;;19.00;73.02;100666.75;5074276;27;45446;-67
2023/09/20 02:42:53;;;;;;;;;2.33;0.67;;;;;18.96;72.67;100647.44;5091033;27;45254;-67
2023/09/20 02:45:20;;;;;;;;;2.00;1.00;;;;;18.93;73.00;100660.78;5096995;27;45756;-67
2023/09/20 02:47:47;;;;;;;;;2.00;2.00;;;;;18.83;73.32;100646.09;5080797;27;45375;-66
2023/09/20 02:50:18;;;;;;;;;2.33;2.00;;;;;18.84;73.87;100666.44;5077267;27;45555;-66
2023/09/20 02:52:46;;;;;;;;;1.00;1.00;;;;;18.85;73.22;100665.50;5091086;27;45591;-68
2023/09/20 02:55:13;;;;;;;;;1.00;1.00;;;;;18.76;73.49;100661.34;5097652;27;45787;-66
2023/09/20 02:57:40;;;;;;;;;2.00;1.00;;;;;18.78;73.86;100656.00;5091257;27;45474;-66
2023/09/20 03:00:15;;;;;;;;;4.00;1.00;;;;;18.73;73.95;100661.44;5099498;27;45431;-66
2023/09/20 03:02:45;;;;;;;;;1.67;0.00;;;;;18.69;74.22;100658.94;5082972;27;45408;-65
2023/09/20 03:05:15;;;;;;;;;1.00;1.00;;;;;18.61;74.76;100662.69;5062563;27;45623;-66
2023/09/20 03:07:42;;;;;;;;;1.00;1.00;;;;;18.51;74.76;100640.06;5089181;27;45717;-67
2023/09/20 03:10:12;;;;;;;;;2.33;1.33;;;;;18.57;75.05;100653.09;5086112;27;45452;-68
2023/09/20 03:12:39;;;;;;;;;2.33;1.67;;;;;18.48;75.39;100642.78;5100197;27;45386;-65
2023/09/20 03:15:09;;;;;;;;;2.00;2.00;;;;;18.39;75.53;100628.06;5081523;27;45487;-68
2023/09/20 03:17:36;;;;;;;;;1.00;1.00;;;;;18.52;75.17;100638.25;5100140;27;45357;-68
2023/09/20 03:20:07;;;;;;;;;2.00;2.00;;;;;18.41;75.47;100620.03;5077647;27;45356;-68
2023/09/20 03:22:34;;;;;;;;;3.00;2.00;;;;;18.51;75.59;100633.84;5091490;27;45432;-67
2023/09/20 03:25:00;;;;;;;;;2.67;1.33;;;;;18.40;75.64;100607.69;5098316;27;45728;-67
2023/09/20 03:27:26;;;;;;;;;0.67;0.67;;;;;18.44;75.27;100619.94;5098385;27;45352;-66
2023/09/20 03:29:52;;;;;;;;;1.00;1.00;;;;;18.56;75.33;100630.16;5099189;27;45421;-68
2023/09/20 03:32:18;;;;;;;;;3.33;1.67;;;;;18.48;75.49;100613.59;5078380;27;45552;-68
2023/09/20 03:34:43;;;;;;;;;2.00;2.00;;;;;18.42;75.80;100613.81;5089337;27;45901;-67
2023/09/20 03:37:10;;;;;;;;;1.00;1.00;;;;;18.38;75.26;100591.81;5098311;27;45318;-67
2023/09/20 03:39:37;;;;;;;;;0.67;0.67;;;;;18.50;75.47;100614.44;5098906;27;45464;-66
2023/09/20 03:42:04;;;;;;;;;0.00;0.00;;;;;18.49;75.74;100612.72;5098733;27;45486;-68
2023/09/20 03:44:32;;;;;;;;;2.67;1.00;;;;;18.36;75.97;100596.31;5098116;27;46207;-70
2023/09/20 03:46:58;;;;;;;;;1.00;1.00;;;;;18.33;76.46;100603.50;5098044;27;45520;-70
2023/09/20 03:49:23;;;;;;;;;1.00;1.00;;;;;18.38;76.07;100602.44;5095426;27;45425;-65
2023/09/20 03:51:49;;;;;;;;;1.00;1.00;;;;;18.36;75.96;100588.34;5097094;27;45635;-66
2023/09/20 03:54:16;;;;;;;;;1.33;0.00;;;;;18.41;75.98;100596.16;5090584;27;45343;-66
2023/09/20 03:56:41;;;;;;;;;2.67;2.00;;;;;18.40;76.06;100591.78;5095690;27;45680;-66
2023/09/20 03:59:08;;;;;;;;;3.00;2.00;;;;;18.38;76.16;100594.47;5099332;27;45464;-67
2023/09/20 04:01:38;;;;;;;;;4.33;1.33;;;;;18.28;76.28;100570.97;5100281;27;45547;-67
2023/09/20 04:04:04;;;;;;;;;2.00;2.00;;;;;18.41;76.20;100599.72;5077830;27;47342;-67
2023/09/20 04:06:34;;;;;;;;;1.00;1.00;;;;;18.33;75.71;100577.84;5091917;27;45469;-69
2023/09/20 04:09:09;;;;;;;;;1.00;1.00;;;;;18.50;75.82;100590.56;5083978;27;45358;-68
2023/09/20 04:11:34;;;;;;;;;2.33;2.00;;;;;18.51;75.17;100567.56;5077148;28;45916;-67
2023/09/20 04:14:00;;;;;;;;;2.67;1.00;;;;;18.54;75.46;100578.94;5096434;27;46211;-66
2023/09/20 04:16:27;;;;;;;;;2.67;1.67;;;;;18.50;75.75;100572.00;5097885;27;45358;-66
2023/09/20 04:18:52;;;;;;;;;1.00;1.00;;;;;18.44;75.92;100575.72;5098122;27;45386;-67
2023/09/20 04:21:18;;;;;;;;;1.00;1.00;;;;;18.38;75.73;100565.31;5099017;27;45462;-66
2023/09/20 04:23:43;;;;;;;;;1.67;1.00;;;;;18.39;76.11;100577.66;5097966;27;45412;-67
2023/09/20 04:26:15;;;;;;;;;3.00;2.00;;;;;18.29;76.52;100565.63;5098011;27;45464;-66
2023/09/20 04:28:41;;;;;;;;;3.00;2.00;;;;;18.37;76.47;100576.84;5079140;27;45361;-67
2023/09/20 04:31:08;;;;;;;;;1.00;1.00;;;;;18.37;76.32;100576.84;5098373;27;45507;-68
2023/09/20 04:33:35;;;;;;;;;3.00;1.00;;;;;18.32;76.22;100562.00;5070182;27;46462;-67
2023/09/20 04:36:04;;;;;;;;;2.33;2.00;;;;;18.34;76.41;100561.06;5096333;27;45393;-67
2023/09/20 04:38:30;;;;;;;;;1.00;1.00;;;;;18.26;76.40;100539.22;5097938;27;45480;-68
2023/09/20 04:40:56;;;;;;;;;1.00;1.00;;;;;18.22;76.37;100549.06;5096559;27;45463;-67
2023/09/20 04:43:22;;;;;;;;;1.33;1.33;;;;;18.23;76.77;100548.13;5097660;27;46460;-67
2023/09/20 04:45:48;;;;;;;;;2.00;1.00;;;;;18.29;76.59;100554.16;5095911;27;45280;-67
2023/09/20 04:48:14;;;;;;;;;1.00;1.00;;;;;18.29;76.83;100557.66;5098012;27;45336;-67
2023/09/20 04:50:39;;;;;;;;;2.00;2.00;;;;;18.19;76.65;100545.63;5073434;28;45524;-66
2023/09/20 04:53:05;;;;;;;;;3.67;1.00;;;;;18.21;76.71;100541.16;5092093;27;46060;-66
2023/09/20 04:55:33;;;;;;;;;1.00;1.00;;;;;18.22;76.94;100541.13;5097055;27;45475;-67
2023/09/20 04:58:00;;;;;;;;;3.00;2.00;;;;;18.26;76.78;100533.06;5097294;27;45456;-67
2023/09/20 05:00:33;;;;;;;;;4.00;3.00;;;;;18.28;76.87;100537.38;5098573;27;45530;-68
2023/09/20 05:02:59;;;;;;;;;2.67;2.00;;;;;18.29;76.44;100543.53;5097189;27;46246;-67
2023/09/20 05:05:26;;;;;;;;;2.00;1.67;;;;;18.29;76.34;100544.41;5093504;27;45424;-67
2023/09/20 05:07:52;;;;;;;;;3.00;1.67;;;;;18.07;76.38;100507.13;5094183;27;45410;-65
2023/09/20 05:10:18;;;;;;;;;2.33;1.00;;;;;18.21;76.44;100534.06;5068946;27;45831;-67
2023/09/20 05:12:44;;;;;;;;;3.00;1.33;;;;;18.18;76.62;100539.47;5097860;27;45433;-67
2023/09/20 05:15:12;;;;;;;;;6.33;4.00;;;;;18.11;76.78;100534.44;5097578;27;45473;-67
2023/09/20 05:17:39;;;;;;;;;4.00;1.33;;;;;18.15;76.83;100536.94;5076532;27;45579;-67
2023/09/20 05:20:06;;;;;;;;;6.00;3.00;;;;;18.12;76.60;100529.06;5097387;27;45329;-65
2023/09/20 05:22:33;;;;;;;;;3.33;3.33;;;;;18.19;76.50;100537.69;5096223;27;46656;-67
2023/09/20 05:24:59;;;;;;;;;1.67;1.67;;;;;18.27;76.24;100529.47;5078712;27;45622;-67
2023/09/20 05:27:24;;;;;;;;;3.33;3.00;;;;;18.29;76.25;100536.44;5096886;27;45432;-67
2023/09/20 05:29:54;;;;;;;;;2.00;2.00;;;;;18.35;75.76;100538.91;5097202;27;45353;-66
2023/09/20 05:32:20;;;;;;;;;2.00;2.00;;;;;18.31;76.00;100533.75;5078226;27;47774;-70
2023/09/20 05:34:47;;;;;;;;;2.00;2.00;;;;;18.34;75.73;100538.94;5097084;27;45512;-67
2023/09/20 05:37:12;;;;;;;;;2.33;2.00;;;;;18.32;75.71;100538.13;5096887;27;45452;-66
2023/09/20 05:39:39;;;;;;;;;3.67;2.33;;;;;18.01;75.72;100496.75;5088713;27;45430;-67
2023/09/20 05:42:05;;;;;;;;;2.67;2.00;;;;;18.15;76.11;100521.03;5072189;28;45465;-67
2023/09/20 05:44:31;;;;;;;;;4.33;3.00;;;;;18.33;75.93;100546.03;5094811;27;45172;-66
2023/09/20 05:46:58;;;;;;;;;3.00;1.33;;;;;18.28;76.06;100534.72;5096815;27;45504;-67
2023/09/20 05:49:24;;;;;;;;;2.00;2.00;;;;;18.40;75.74;100549.38;5096911;27;45251;-67
2023/09/20 05:51:52;;;;;;;;;1.33;1.33;;;;;18.47;75.28;100545.59;5087470;27;45403;-68
2023/09/20 05:54:21;;;;;;;;;3.00;2.00;;;;;18.54;74.91;100530.34;5089697;27;45409;-67
2023/09/20 05:56:48;;;;;;;;;4.33;2.00;;;;;18.37;75.43;100525.63;5094355;27;45431;-67
2023/09/20 05:59:20;;;;;;;;;3.00;3.00;;;;;18.38;75.49;100537.94;5098400;27;45487;-66
2023/09/20 06:01:45;;;;;;;;;4.00;1.33;;;;;18.36;75.45;100529.16;5097402;27;45628;-66
2023/09/20 06:04:11;;;;;;;;;2.33;2.33;;;;;18.39;75.60;100523.78;5096279;27;45503;-67
2023/09/20 06:06:38;;;;;;;;;2.67;2.67;;;;;18.29;75.76;100511.72;5095943;27;45390;-69
2023/09/20 06:09:03;;;;;;;;;2.67;2.67;;;;;18.26;75.98;100507.41;5096552;27;45441;-67
2023/09/20 06:11:29;;;;;;;;;4.33;3.67;;;;;18.11;76.02;100490.22;5096471;27;46054;-68
2023/09/20 06:13:55;;;;;;;;;4.67;2.33;;;;;18.30;76.55;100517.00;5077311;27;45391;-67
2023/09/20 06:16:22;;;;;;;;;5.67;2.00;;;;;18.16;76.03;100482.13;5096757;27;45552;-65
2023/09/20 06:18:50;;;;;;;;;7.33;3.00;;;;;18.13;76.31;100479.59;5097225;27;45474;-69
2023/09/20 06:21:17;;;;;;;;;3.67;2.67;;;;;18.37;76.07;100504.41;5099777;27;45482;-68
2023/09/20 06:23:44;;;;;;;;;4.00;3.00;;;;;18.13;75.93;100464.53;5095967;27;45549;-67
2023/09/20 06:26:12;;;;;;;;;5.33;2.00;;;;;18.36;75.97;100513.25;5101155;27;45427;-67
2023/09/20 06:28:40;;;;;;;;;4.00;2.00;;;;;18.43;75.63;100512.13;5100098;27;45508;-67
2023/09/20 06:31:07;;;;;;;;;2.33;2.00;;;;;18.50;75.56;100505.69;5099573;27;46045;-67
2023/09/20 06:33:33;;;;;;;;;2.00;2.00;;;;;18.58;75.21;100510.72;5090940;27;45423;-66
2023/09/20 06:35:59;;;;;;;;;5.00;3.00;;;;;18.59;75.09;100508.03;5099294;27;45392;-66
2023/09/20 06:38:25;;;;;;;;;3.67;2.67;;;;;18.57;74.79;100506.34;5099567;27;45532;-67
2023/09/20 06:40:52;;;;;;;;;6.67;3.00;;;;;18.64;74.73;100510.53;5099115;27;45509;-69
2023/09/20 06:43:18;;;;;;;;;4.33;3.33;;;;;18.64;74.57;100514.03;5096701;27;45992;-66
2023/09/20 06:45:52;;;;;;;;;3.00;3.00;;;;;18.56;74.43;100500.19;5099251;27;45534;-67
2023/09/20 06:48:22;;;;;;;;;2.33;2.33;;;;;18.58;74.82;100516.03;5099933;27;45439;-68
2023/09/20 06:50:49;;;;;;;;;6.67;2.00;;;;;18.63;74.66;100514.13;5098942;27;46095;-68
2023/09/20 06:53:17;;;;;;;;;3.00;3.00;;;;;18.70;74.22;100522.69;5098650;27;45275;-66
2023/09/20 06:55:43;;;;;;;;;3.00;3.00;;;;;18.68;74.22;100525.44;5073898;27;45552;-67
2023/09/20 06:58:13;;;;;;;;;6.00;3.00;;;;;18.71;74.42;100514.69;5100166;27;45351;-66
2023/09/20 07:00:39;;;;;;;;;2.67;2.67;;;;;18.80;73.79;100516.19;5098904;27;46726;-68
2023/09/20 07:03:05;;;;;;;;;2.00;2.00;;;;;18.82;73.56;100506.41;5098854;27;45838;-67
2023/09/20 07:05:31;;;;;;;;;4.00;4.00;;;;;18.77;74.14;100510.97;5080943;27;45500;-67
2023/09/20 07:08:00;;;;;;;;;5.67;4.00;;;;;18.70;74.17;100512.09;5070070;27;45516;-68
2023/09/20 07:10:31;;;;;;;;;2.00;2.00;;;;;18.63;74.22;100509.66;5096924;27;45523;-68
2023/09/20 07:12:57;;;;;;;;;2.67;1.67;;;;;18.76;73.66;100511.88;5098949;27;45519;-68
2023/09/20 07:15:28;;;;;;;;;6.67;2.00;;;;;18.81;73.54;100516.13;5100106;27;45404;-69
2023/09/20 07:18:01;;;;;;;;;3.33;3.33;;;;;18.82;73.64;100524.97;5082346;27;45446;-72
2023/09/20 07:20:31;;;;;;;;;3.00;3.00;;;;;18.70;73.49;100501.47;5100138;27;45537;-70
2023/09/20 07:22:58;;;;;;;;;4.67;3.00;;;;;18.71;73.47;100503.22;5100352;27;45552;-68
2023/09/20 07:25:27;;;;;;;;;3.00;2.00;;;;;18.75;73.67;100521.63;5100271;27;45337;-68
2023/09/20 07:27:55;;;;;;;;;1.33;1.33;;;;;18.73;73.65;100510.22;5099233;27;45377;-70
2023/09/20 07:30:22;;;;;;;;;2.00;2.00;;;;;18.70;74.23;100512.09;5079458;27;46324;-70
2023/09/20 07:32:51;;;;;;;;;3.00;2.33;;;;;18.64;73.97;100514.03;5080167;27;45428;-67
2023/09/20 07:35:27;;;;;;;;;5.00;3.00;;;;;18.61;74.10;100498.25;5079992;27;45426;-68
2023/09/20 07:37:57;;;;;;;;;3.67;2.00;;;;;18.77;73.92;100516.28;5098756;27;45585;-70
2023/09/20 07:40:35;;;;;;;;;5.00;3.00;;;;;18.89;73.42;100505.25;5098837;27;46483;-67
2023/09/20 07:43:06;;;;;;;;;3.00;3.00;;;;;18.92;73.07;100507.78;5098052;27;45443;-67
2023/09/20 07:45:33;;;;;;;;;3.00;2.00;;;;;18.97;73.28;100513.78;5098585;27;45653;-67
2023/09/20 07:48:00;;;;;;;;;3.33;2.67;;;;;19.08;72.68;100508.09;5098067;27;45455;-68
2023/09/20 07:50:26;;;;;;;;;2.00;2.00;;;;;19.05;72.42;100487.84;5091470;27;45982;-70
2023/09/20 07:52:52;;;;;;;;;5.00;3.00;;;;;19.32;71.64;100510.78;5087040;27;45794;-69
2023/09/20 07:55:18;;;;;;;;;2.67;2.33;;;;;19.00;71.43;100460.59;5092160;27;45440;-70
2023/09/20 07:57:43;;;;;;;;;5.33;3.00;;;;;19.20;71.76;100485.56;5098976;27;45278;-69
2023/09/20 08:00:15;;;;;;;;;2.00;2.00;;;;;19.19;71.73;100478.50;5096305;27;46142;-69
2023/09/20 08:02:46;;;;;;;;;2.33;2.33;;;;;19.46;71.10;100495.19;5098699;27;45471;-67
2023/09/20 08:05:12;;;;;;;;;3.33;2.33;;;;;19.52;71.21;100494.94;5098268;27;45278;-70
2023/09/20 08:07:38;;;;;;;;;4.00;3.00;;;;;19.54;70.86;100492.22;5098729;27;45432;-68
2023/09/20 08:10:04;;;;;;;;;4.67;3.00;;;;;19.48;70.63;100483.56;5097772;27;46347;-68
2023/09/20 08:12:34;;;;;;;;;4.33;3.67;;;;;19.49;70.59;100472.00;5098208;27;45379;-69
2023/09/20 08:15:00;;;;;;;;;2.00;2.00;;;;;19.59;70.40;100471.66;5091371;27;45604;-69
2023/09/20 08:20:11;;;;;;;;;3.33;3.33;;;;;20.04;68.82;100476.06;5097769;27;45778;-68
2023/09/20 09:01:12;;;;;;;;;3.00;2.33;;;;;21.12;64.53;100481.13;5098380;27;45969;-69
2023/09/20 09:03:41;;;;;;;;;5.67;3.33;;;;;21.11;64.19;100478.53;5097680;27;45492;-69
2023/09/20 09:06:08;;;;;;;;;4.00;3.67;;;;;21.04;64.03;100477.09;5097262;27;45461;-69
2023/09/20 09:08:35;;;;;;;;;5.00;3.00;;;;;21.02;64.04;100479.81;5097377;27;45366;-67
2023/09/20 09:11:01;;;;;;;;;5.67;3.67;;;;;20.98;64.24;100462.25;5097908;27;45521;-69
2023/09/20 09:13:28;;;;;;;;;4.33;4.33;;;;;21.11;63.82;100478.53;5097704;27;46373;-68
2023/09/20 09:15:55;;;;;;;;;2.33;2.33;;;;;21.25;63.05;100472.56;5095398;27;45469;-69
2023/09/20 09:18:21;;;;;;;;;5.67;3.00;;;;;21.37;62.83;100458.66;5098283;27;45602;-69
2023/09/20 09:20:47;;;;;;;;;4.00;3.00;;;;;21.41;62.34;100438.13;5095963;27;45222;-69
2023/09/20 09:23:32;;;;;;;;;5.00;3.33;;;;;21.68;61.72;100450.09;5096292;27;46340;-68
2023/09/20 09:25:57;;;;;;;;;5.00;3.00;;;;;21.60;60.68;100444.28;5096752;27;45343;-69
2023/09/20 09:28:26;;;;;;;;;3.00;3.00;;;;;21.62;60.65;100438.88;5096919;27;45790;-69
2023/09/20 09:30:54;;;;;;;;;4.67;2.67;;;;;21.61;59.80;100430.00;5095172;27;45405;-69
2023/09/20 09:33:20;;;;;;;;;2.33;2.00;;;;;21.68;59.16;100443.91;5087118;27;46273;-69
2023/09/20 09:35:48;;;;;;;;;1.67;1.67;;;;;21.67;59.80;100443.06;5096724;27;45389;-71
2023/09/20 09:38:20;;;;;;;;;3.00;2.67;;;;;21.59;59.10;100430.13;5096290;27;45417;-68
2023/09/20 09:40:53;;;;;;;;;3.67;3.67;;;;;21.51;58.68;100424.28;5096942;27;45668;-68
2023/09/20 09:43:19;;;;;;;;;3.67;2.33;;;;;21.61;58.25;100416.69;5078209;27;46523;-69
2023/09/20 09:45:51;;;;;;;;;3.50;1.75;;;;;21.60;57.96;100407.84;5095971;27;45530;-68
2023/09/20 09:48:16;;;;;;;;;3.67;3.67;;;;;21.71;57.81;100406.44;5098233;27;45472;-68
2023/09/20 09:50:46;;;;;;;;;5.00;3.00;;;;;21.81;57.32;100405.91;5097249;27;45398;-68
2023/09/20 09:53:15;;;;;;;;;4.00;3.00;;;;;21.84;57.60;100394.25;5096409;27;46736;-68
2023/09/20 09:55:41;;;;;;;;;5.67;2.33;;;;;21.97;56.52;100402.47;5100043;27;45416;-68
2023/09/20 09:58:12;;;;;;;;;2.25;2.25;;;;;22.06;56.06;100398.47;5099965;27;45456;-68
2023/09/20 10:00:40;;;;;;;;;3.00;1.50;;;;;22.20;56.09;100388.84;5098666;27;45496;-70
2023/09/20 10:03:32;;;;;;;;;2.25;2.25;;;;;22.22;55.01;100375.44;5099860;27;46227;-68
2023/09/20 10:06:21;;;;;;;;;4.33;3.00;;;;;22.58;55.50;100387.78;5082591;27;45457;-69
2023/09/20 10:08:53;;;;;;;;;2.50;2.50;;;;;22.69;53.58;100385.41;5099889;27;45505;-69
2023/09/20 10:11:21;;;;;;;;;2.00;2.00;;;;;22.65;53.62;100384.69;5100314;27;45582;-69
2023/09/20 10:13:47;;;;;;;;;3.50;3.50;;;;;22.75;53.06;100376.19;5099855;27;46024;-69
2023/09/20 10:16:17;;;;;;;;;2.00;1.75;;;;;22.78;52.21;100371.56;5073909;27;45919;-68
2023/09/20 10:19:01;;;;;;;;;4.00;3.00;;;;;22.90;51.20;100370.03;5095576;27;45472;-69
2023/09/20 10:21:30;;;;;;;;;3.25;2.75;;;;;22.91;50.34;100366.41;5099719;27;45348;-68
2023/09/20 10:24:03;;;;;;;;;3.25;3.00;;;;;23.05;49.86;100345.16;5100148;27;45406;-69
2023/09/20 10:26:43;;;;;;;;;4.00;2.00;;;;;23.20;49.05;100334.56;5074446;27;45607;-69
2023/09/20 10:29:26;;;;;;;;;2.75;2.25;;;;;23.47;49.05;100350.84;5094281;27;45404;-69
2023/09/20 10:32:17;;;;;;;;;2.25;2.25;;;;;23.76;48.60;100337.59;5089177;27;45475;-68
2023/09/20 10:35:19;;;;;;;;;2.75;2.75;;;;;23.86;45.43;100342.28;5092645;27;46440;-67
2023/09/20 10:37:59;;;;;;;;;2.00;2.00;;;;;23.96;45.63;100337.25;5099271;27;45480;-68
2023/09/20 10:40:48;;;;;;;;;4.00;2.00;;;;;24.13;45.89;100337.13;5100100;27;45392;-68
2023/09/20 10:43:15;;;;;;;;;2.25;2.00;;;;;24.01;44.47;100329.81;5101077;27;45395;-70
2023/09/20 10:45:48;;;;;;;;;3.75;2.75;;;;;24.04;44.92;100315.41;5098832;27;46102;-69
2023/09/20 10:48:17;;;;;;;;;2.50;2.50;;;;;24.33;43.25;100310.94;5099429;27;45531;-71
2023/09/20 10:50:50;;;;;;;;;5.00;2.00;;;;;24.71;44.00;100321.94;5078078;27;45291;-69
2023/09/20 10:53:19;;;;;;;;;1.25;1.25;;;;;25.14;43.93;100331.72;5070192;27;45456;-68
2023/09/20 10:55:51;;;;;;;;;2.25;2.25;;;;;25.43;43.13;100331.66;5088975;27;46187;-69
2023/09/20 10:58:20;;;;;;;;;4.50;3.00;;;;;25.41;42.58;100314.81;5094915;27;45973;-70
2023/09/20 11:00:45;;;;;;;;;2.25;2.25;;;;;25.68;42.59;100317.47;5088634;27;45621;-71
2023/09/20 11:03:12;;;;;;;;;3.00;3.00;;;;;26.02;41.63;100311.53;5090267;27;45459;-70
2023/09/20 11:05:38;;;;;;;;;3.00;3.00;;;;;26.11;41.07;100317.22;5090581;27;45535;-69
2023/09/20 11:08:08;;;;;;;;;2.50;2.50;;;;;26.13;40.88;100313.47;5087422;27;46009;-70
2023/09/20 11:10:35;;;;;;;;;4.00;3.00;;;;;26.24;40.69;100307.34;5090733;27;45536;-69
2023/09/20 11:13:08;;;;;;;;;2.00;2.00;;;;;26.58;40.68;100308.53;5097398;27;45432;-69
2023/09/20 11:15:41;;;;;;;;;3.00;3.00;;;;;26.90;40.42;100312.53;5096048;27;45691;-71
2023/09/20 11:18:08;;;;;;;;;3.00;3.00;;;;;27.14;39.58;100326.00;5077980;27;45467;-69
2023/09/20 11:20:34;;;;;;;;;2.00;2.00;;;;;27.16;39.89;100313.31;5096709;27;45659;-69
2023/09/20 11:23:02;;;;;;;;;4.25;2.25;;;;;27.78;38.13;100290.72;5096226;27;45885;-69
2023/09/20 11:25:29;;;;;;;;;2.80;2.80;;;;;29.16;36.18;100282.44;5091155;27;45697;-69
2023/09/20 11:27:58;;;;;;;;;3.00;3.00;;;;;31.33;33.24;100291.41;5096662;27;45460;-69
2023/09/20 11:30:27;;;;;;;;;3.60;3.40;;;;;32.90;30.77;100290.06;5092120;27;45516;-69
2023/09/20 11:32:54;;;;;;;;;2.20;2.20;;;;;33.35;29.69;100279.19;5086718;27;45500;-70
2023/09/20 11:35:38;;;;;;;;;4.00;2.00;;;;;34.42;28.67;100282.69;5093701;27;46370;-70
2023/09/20 11:38:05;;;;;;;;;5.00;2.60;;;;;34.35;28.24;100260.75;5088688;27;45483;-69
2023/09/20 11:40:32;;;;;;;;;3.80;3.80;;;;;34.47;28.27;100247.72;5096213;27;45377;-70
2023/09/20 11:42:58;;;;;;;;;1.80;1.80;;;;;34.54;27.37;100237.88;5091764;27;45294;-70
2023/09/20 11:45:25;;;;;;;;;4.25;2.50;;;;;34.34;27.02;100207.41;5090591;27;45434;-67
2023/09/20 11:47:51;;;;;;;;;2.80;2.80;;;;;33.76;28.38;100232.53;5076975;27;45594;-70
2023/09/20 11:50:17;;;;;;;;;2.75;2.25;;;;;34.36;28.15;100256.16;5091421;27;45568;-70
2023/09/20 11:52:47;;;;;;;;;4.00;2.25;;;;;34.86;27.30;100270.81;5092621;27;45444;-69
2023/09/20 11:55:14;;;;;;;;;3.80;3.00;;;;;34.61;27.48;100248.97;5091007;27;45652;-69
2023/09/20 11:57:46;;;;;;;;;3.00;1.80;;;;;33.68;28.67;100246.91;5078864;27;45940;-69
2023/09/20 12:00:19;;;;;;;;;4.40;1.40;;;;;32.42;30.43;100259.47;5096902;27;45481;-68
2023/09/20 12:02:46;;;;;;;;;4.00;3.00;;;;;32.00;30.92;100242.81;5091376;27;45754;-68
2023/09/20 12:05:12;;;;;;;;;3.40;3.40;;;;;31.52;31.86;100247.28;5093529;27;45559;-68
2023/09/20 12:07:38;;;;;;;;;2.75;2.75;;;;;31.53;31.96;100249.00;5076490;27;45969;-67
2023/09/20 12:10:06;;;;;;;;;3.00;3.00;;;;;31.45;31.88;100238.03;5095986;27;45839;-69
2023/09/20 12:12:33;;;;;;;;;3.00;3.00;;;;;30.76;32.92;100249.75;5093941;27;46653;-69